Time;durP1;ratioP1;P1;durP2;ratioP2;P2;SDS_P1;SDS_P2;PMS_P1;PMS_P2;Temp;Humidity;BMP_temperature;BMP_pressure;BME280_temperature;BME280_humidity;BME280_pressure;Samples;Min_cycle;Max_cycle;Signal;HPM_P1;HPM_P2
2023/10/12 00:00:24;;;;;;;4.45;2.60;;;;;;;;;;5004618;28;20022;-76
2023/10/12 00:02:52;;;;;;;9.32;3.35;;;;;;;;;;5001775;28;20014;-76
2023/10/12 00:05:18;;;;;;;4.60;2.90;;;;;;;;;;5002933;28;20041;-76
2023/10/12 00:07:45;;;;;;;6.60;2.67;;;;;;;;;;5001537;28;20625;-76
2023/10/12 00:12:44;;;;;;;7.10;2.50;;;;;;;;;;5003376;28;20401;-76
2023/10/12 00:17:45;;;;;;;4.28;2.42;;;;;;;;;;5002461;28;20018;-76
2023/10/12 00:20:21;;;;;;;8.73;2.30;;;;;;;;;;4999214;28;20159;-76
2023/10/12 00:22:46;;;;;;;4.60;2.13;;;;;;;;;;4999991;28;20149;-76
2023/10/12 00:25:16;;;;;;;8.82;2.80;;;;;;;;;;5005085;28;20124;-76
2023/10/12 00:27:41;;;;;;;6.10;2.28;;;;;;;;;;4999571;28;20273;-76
2023/10/12 00:30:08;;;;;;;3.60;2.55;;;;;;;;;;5002202;28;20034;-76
2023/10/12 00:32:33;;;;;;;8.52;2.88;;;;;;;;;;4997394;28;20434;-75
2023/10/12 00:34:59;;;;;;;8.82;2.55;;;;;;;;;;5005258;28;20083;-76
2023/10/12 00:37:24;;;;;;;12.80;2.63;;;;;;;;;;5000877;28;20025;-76
2023/10/12 00:42:18;;;;;;;6.88;2.03;;;;;;;;;;5000938;28;20041;-76
2023/10/12 00:44:48;;;;;;;7.10;2.35;;;;;;;;;;5002629;28;20025;-76
2023/10/12 00:47:19;;;;;;;5.47;2.97;;;;;;;;;;4999130;28;20045;-76
2023/10/12 00:49:55;;;;;;;6.38;2.35;;;;;;;;;;5000981;28;20040;-76
2023/10/12 00:52:33;;;;;;;4.32;2.10;;;;;;;;;;5003648;28;20038;-76
2023/10/12 00:55:13;;;;;;;3.92;2.03;;;;;;;;;;5002705;28;20103;-76
2023/10/12 00:57:39;;;;;;;8.95;2.65;;;;;;;;;;5002931;28;20054;-76
2023/10/12 01:00:18;;;;;;;7.55;2.75;;;;;;;;;;5003709;28;20057;-76
2023/10/12 01:03:06;;;;;;;9.15;2.30;;;;;;;;;;4999918;28;20024;-76
2023/10/12 01:05:35;;;;;;;5.05;2.10;;;;;;;;;;5004841;28;21037;-76
2023/10/12 01:08:01;;;;;;;3.85;2.60;;;;;;;;;;5004541;28;20042;-77
2023/10/12 01:10:31;;;;;;;4.35;1.90;;;;;;;;;;4999628;28;20034;-76
2023/10/12 01:12:57;;;;;;;8.55;2.50;;;;;;;;;;5004292;28;20030;-76
2023/10/12 01:15:27;;;;;;;4.30;2.40;;;;;;;;;;5004597;28;20167;-76
2023/10/12 01:17:52;;;;;;;6.72;2.70;;;;;;;;;;5001518;28;20029;-77
2023/10/12 01:20:26;;;;;;;13.43;3.63;;;;;;;;;;5002729;28;20037;-76
2023/10/12 01:22:51;;;;;;;5.60;2.35;;;;;;;;;;5000300;28;20836;-76
2023/10/12 01:25:28;;;;;;;11.65;2.38;;;;;;;;;;5001786;28;20042;-76
2023/10/12 01:27:54;;;;;;;9.55;2.35;;;;;;;;;;4999447;28;20030;-76
2023/10/12 01:30:22;;;;;;;7.22;2.47;;;;;;;;;;5002006;28;20189;-76
2023/10/12 01:32:54;;;;;;;8.48;2.70;;;;;;;;;;5008051;28;20033;-76
2023/10/12 01:35:32;;;;;;;7.32;2.30;;;;;;;;;;5005179;28;20471;-76
2023/10/12 01:38:00;;;;;;;7.45;2.20;;;;;;;;;;5004575;28;20506;-76
2023/10/12 01:40:27;;;;;;;16.13;2.65;;;;;;;;;;5000917;28;20147;-77
2023/10/12 01:42:56;;;;;;;5.57;2.40;;;;;;;;;;5005023;28;20022;-76
2023/10/12 01:45:40;;;;;;;7.95;3.00;;;;;;;;;;5003452;28;20357;-76
2023/10/12 01:48:11;;;;;;;4.97;2.80;;;;;;;;;;5004506;28;20618;-76
2023/10/12 01:50:37;;;;;;;9.50;2.42;;;;;;;;;;4999945;28;20411;-76
2023/10/12 01:53:18;;;;;;;5.28;2.28;;;;;;;;;;5006265;28;20579;-76
2023/10/12 01:55:44;;;;;;;6.60;2.40;;;;;;;;;;5003641;28;20675;-77
2023/10/12 01:58:12;;;;;;;9.32;2.50;;;;;;;;;;5005219;28;20049;-75
2023/10/12 02:00:53;;;;;;;4.68;2.63;;;;;;;;;;5003848;28;20783;-77
2023/10/12 02:05:58;;;;;;;8.98;2.80;;;;;;;;;;5004278;28;20030;-77
2023/10/12 02:08:32;;;;;;;4.78;2.58;;;;;;;;;;5002863;28;20656;-75
2023/10/12 02:13:55;;;;;;;7.47;2.95;;;;;;;;;;4982782;28;20041;-76
2023/10/12 02:16:30;;;;;;;6.53;2.80;;;;;;;;;;5003386;28;20030;-75
2023/10/12 02:18:55;;;;;;;4.75;2.75;;;;;;;;;;5000347;28;20520;-75
2023/10/12 02:21:22;;;;;;;3.65;2.47;;;;;;;;;;5004986;28;20057;-75
2023/10/12 02:26:37;;;;;;;6.43;2.58;;;;;;;;;;5005353;28;20034;-75
2023/10/12 02:34:19;;;;;;;7.78;2.72;;;;;;;;;;5003197;28;20044;-75
2023/10/12 02:37:00;;;;;;;9.23;2.58;;;;;;;;;;5002727;28;20057;-75
2023/10/12 02:39:42;;;;;;;10.35;3.30;;;;;;;;;;5005787;28;20481;-75
2023/10/12 02:47:17;;;;;;;5.88;2.30;;;;;;;;;;5002469;28;20930;-75
2023/10/12 02:49:43;;;;;;;6.85;2.70;;;;;;;;;;5001892;28;20392;-75
2023/10/12 02:52:08;;;;;;;5.18;2.42;;;;;;;;;;5004059;28;20117;-77
2023/10/12 02:54:48;;;;;;;5.05;2.53;;;;;;;;;;5001399;28;20034;-77
2023/10/12 02:57:14;;;;;;;4.30;2.80;;;;;;;;;;5003462;28;20494;-75
2023/10/12 02:59:40;;;;;;;4.60;2.72;;;;;;;;;;5004814;28;20097;-75
2023/10/12 03:02:22;;;;;;;9.82;3.05;;;;;;;;;;5004092;28;20478;-75
2023/10/12 03:04:48;;;;;;;5.97;2.88;;;;;;;;;;5004046;28;20041;-75
2023/10/12 03:07:22;;;;;;;13.98;2.90;;;;;;;;;;5006412;28;20042;-77
2023/10/12 03:09:56;;;;;;;6.90;2.47;;;;;;;;;;5000088;28;20022;-76
2023/10/12 03:12:23;;;;;;;8.25;2.72;;;;;;;;;;5014601;28;20049;-76
2023/10/12 03:14:51;;;;;;;13.18;2.70;;;;;;;;;;5008113;28;20022;-77
2023/10/12 03:17:20;;;;;;;7.28;2.50;;;;;;;;;;4998306;28;20061;-77
2023/10/12 03:19:55;;;;;;;6.32;2.45;;;;;;;;;;5014955;28;20037;-76
2023/10/12 03:22:34;;;;;;;6.20;3.00;;;;;;;;;;5012421;28;20129;-76
2023/10/12 03:25:19;;;;;;;10.38;3.10;;;;;;;;;;5002490;28;20034;-76
2023/10/12 03:27:50;;;;;;;7.85;3.38;;;;;;;;;;5002445;28;20488;-76
2023/10/12 03:30:17;;;;;;;7.65;3.15;;;;;;;;;;5002603;28;20449;-76
2023/10/12 03:32:44;;;;;;;4.50;2.53;;;;;;;;;;5003838;28;20022;-76
2023/10/12 03:35:13;;;;;;;14.00;2.83;;;;;;;;;;5003057;28;20058;-76
2023/10/12 03:38:00;;;;;;;4.70;2.50;;;;;;;;;;5003866;28;20046;-76
2023/10/12 03:43:20;;;;;;;9.77;2.97;;;;;;;;;;4997218;28;20358;-75
2023/10/12 03:48:25;;;;;;;6.32;3.05;;;;;;;;;;5005533;28;20049;-76
2023/10/12 03:50:57;;;;;;;3.45;2.72;;;;;;;;;;5004518;28;20056;-76
2023/10/12 03:53:26;;;;;;;4.75;2.30;;;;;;;;;;5001791;28;20499;-76
2023/10/12 03:55:58;;;;;;;9.82;2.83;;;;;;;;;;5002046;28;20036;-76
2023/10/12 03:58:24;;;;;;;5.07;2.50;;;;;;;;;;5002097;28;20050;-76
2023/10/12 04:01:40;;;;;;;9.65;2.90;;;;;;;;;;4998032;28;20031;-76
2023/10/12 04:03:44;;;;;;;15.60;2.88;;;;;;;;;;4999353;28;20081;-76
2023/10/12 04:06:23;;;;;;;7.55;2.67;;;;;;;;;;5003462;28;20109;-76
2023/10/12 04:08:54;;;;;;;5.07;2.70;;;;;;;;;;5003369;28;20029;-76
2023/10/12 04:11:47;;;;;;;6.80;3.00;;;;;;;;;;5002027;28;20101;-76
2023/10/12 04:14:21;;;;;;;6.43;2.80;;;;;;;;;;5000640;28;20524;-76
2023/10/12 04:16:56;;;;;;;6.38;2.70;;;;;;;;;;4999061;28;20034;-76
2023/10/12 04:19:30;;;;;;;3.13;2.35;;;;;;;;;;4998763;28;20036;-76
2023/10/12 04:22:15;;;;;;;;;;;;;;;;;;5000444;28;20031;-76
2023/10/12 04:24:45;;;;;;;13.15;2.80;;;;;;;;;;5000035;28;19921;-76
2023/10/12 04:27:24;;;;;;;9.25;2.65;;;;;;;;;;4997752;28;20041;-76
2023/10/12 04:29:56;;;;;;;4.57;2.72;;;;;;;;;;4998731;28;20037;-76
2023/10/12 04:32:40;;;;;;;4.05;2.42;;;;;;;;;;4997372;28;20037;-76
2023/10/12 04:35:17;;;;;;;8.50;2.75;;;;;;;;;;4995909;28;20674;-76
2023/10/12 04:37:43;;;;;;;13.63;3.00;;;;;;;;;;4999041;28;20037;-77
2023/10/12 04:40:32;;;;;;;3.38;2.45;;;;;;;;;;4996609;28;20048;-76
2023/10/12 04:42:54;;;;;;;4.07;2.42;;;;;;;;;;4992234;28;20066;-76
2023/10/12 04:47:46;;;;;;;5.78;2.20;;;;;;;;;;4995404;28;20398;-76
2023/10/12 04:50:26;;;;;;;5.82;2.78;;;;;;;;;;5000278;28;20092;-76
2023/10/12 04:53:18;;;;;;;2.20;2.00;;;;;;;;;;4999084;28;20034;-76
2023/10/12 04:55:47;;;;;;;12.38;2.53;;;;;;;;;;4996290;28;20036;-77
2023/10/12 04:58:36;;;;;;;6.22;2.47;;;;;;;;;;5000644;28;20061;-76
2023/10/12 05:01:16;;;;;;;8.95;2.40;;;;;;;;;;4997708;28;20084;-76
2023/10/12 05:03:42;;;;;;;9.80;2.65;;;;;;;;;;4996571;28;20375;-76
2023/10/12 05:06:14;;;;;;;7.32;2.53;;;;;;;;;;5004401;28;20057;-76
2023/10/12 05:08:40;;;;;;;6.57;3.25;;;;;;;;;;4999788;28;20028;-76
2023/10/12 05:11:08;;;;;;;4.30;2.55;;;;;;;;;;5000501;28;20030;-76
2023/10/12 05:13:33;;;;;;;11.05;3.40;;;;;;;;;;5003625;28;20026;-76
2023/10/12 05:16:05;;;;;;;5.65;2.97;;;;;;;;;;5004328;28;20383;-77
2023/10/12 05:18:31;;;;;;;8.10;2.53;;;;;;;;;;5005330;28;20049;-77
2023/10/12 05:20:57;;;;;;;8.38;2.88;;;;;;;;;;5004306;28;20426;-77
2023/10/12 05:23:22;;;;;;;4.72;2.35;;;;;;;;;;5004751;28;20043;-77
2023/10/12 05:25:48;;;;;;;9.75;2.45;;;;;;;;;;4999172;28;20470;-76
2023/10/12 05:28:18;;;;;;;10.18;2.67;;;;;;;;;;5001646;28;20594;-77
2023/10/12 05:30:50;;;;;;;7.60;2.85;;;;;;;;;;4997502;28;20035;-77
2023/10/12 05:33:28;;;;;;;12.40;2.72;;;;;;;;;;4999645;28;20022;-76
2023/10/12 05:35:57;;;;;;;8.10;3.47;;;;;;;;;;5002191;28;20534;-76
2023/10/12 05:38:34;;;;;;;11.07;2.97;;;;;;;;;;5003505;28;20034;-77
2023/10/12 05:41:08;;;;;;;6.65;3.30;;;;;;;;;;4999092;28;20052;-76
2023/10/12 05:43:39;;;;;;;6.80;2.83;;;;;;;;;;5000072;28;20065;-76
2023/10/12 05:46:13;;;;;;;9.20;2.83;;;;;;;;;;4998768;28;20038;-77
2023/10/12 05:48:46;;;;;;;4.50;2.40;;;;;;;;;;5000181;28;20152;-77
2023/10/12 05:51:19;;;;;;;9.82;2.70;;;;;;;;;;5001385;28;20498;-77
2023/10/12 05:53:45;;;;;;;5.40;2.67;;;;;;;;;;5000137;28;20026;-77
2023/10/12 05:56:10;;;;;;;11.00;3.50;;;;;;;;;;5006870;28;20040;-77
2023/10/12 05:58:40;;;;;;;4.15;2.55;;;;;;;;;;5001421;28;20034;-77
2023/10/12 06:01:08;;;;;;;6.10;2.88;;;;;;;;;;5001605;28;20157;-76
2023/10/12 06:03:39;;;;;;;10.05;2.95;;;;;;;;;;5003398;28;20037;-75
2023/10/12 06:06:06;;;;;;;11.35;3.08;;;;;;;;;;5001329;28;20023;-75
2023/10/12 06:08:33;;;;;;;5.82;3.08;;;;;;;;;;5003772;28;20025;-77
2023/10/12 06:10:58;;;;;;;12.18;2.65;;;;;;;;;;5001250;28;20045;-76
2023/10/12 06:13:32;;;;;;;6.22;2.90;;;;;;;;;;5003887;28;20037;-78
2023/10/12 06:15:58;;;;;;;4.45;3.00;;;;;;;;;;4994901;28;20045;-76
2023/10/12 06:18:30;;;;;;;6.45;2.58;;;;;;;;;;5001334;28;20038;-76
2023/10/12 06:20:58;;;;;;;8.73;3.30;;;;;;;;;;5000650;28;20394;-76
2023/10/12 06:23:27;;;;;;;7.78;2.80;;;;;;;;;;4995487;28;20030;-76
2023/10/12 06:25:52;;;;;;;5.05;2.70;;;;;;;;;;5001222;28;20068;-76
2023/10/12 06:28:18;;;;;;;14.50;2.90;;;;;;;;;;4992200;28;20511;-76
2023/10/12 06:30:44;;;;;;;8.00;2.63;;;;;;;;;;5001675;28;20185;-76
2023/10/12 06:33:14;;;;;;;4.85;2.63;;;;;;;;;;4999837;28;20117;-77
2023/10/12 06:35:58;;;;;;;5.65;2.95;;;;;;;;;;5000970;28;20025;-77
2023/10/12 06:41:29;;;;;;;6.20;2.50;;;;;;;;;;4996775;28;20122;-76
2023/10/12 06:46:46;;;;;;;4.75;2.65;;;;;;;;;;4998166;28;20133;-76
2023/10/12 06:49:45;;;;;;;7.60;2.60;;;;;;;;;;5004372;28;20545;-76
2023/10/12 06:52:03;;;;;;;3.42;2.15;;;;;;;;;;4999864;28;20410;-76
2023/10/12 06:54:39;;;;;;;9.90;2.45;;;;;;;;;;5000044;28;20149;-76
2023/10/12 06:59:53;;;;;;;7.85;2.75;;;;;;;;;;4998932;28;20474;-76
2023/10/12 07:02:24;;;;;;;7.38;2.40;;;;;;;;;;5001617;28;20045;-76
2023/10/12 07:04:53;;;;;;;9.35;2.50;;;;;;;;;;4996588;28;20423;-77
2023/10/12 07:07:29;;;;;;;5.50;2.80;;;;;;;;;;4997985;28;20041;-77
2023/10/12 07:10:12;;;;;;;7.40;2.05;;;;;;;;;;4999253;28;20039;-75
2023/10/12 07:12:47;;;;;;;9.27;2.55;;;;;;;;;;4989930;28;20125;-75
2023/10/12 07:15:23;;;;;;;9.38;2.40;;;;;;;;;;4994164;28;20974;-75
2023/10/12 07:17:50;;;;;;;4.68;2.35;;;;;;;;;;4998321;28;20022;-76
2023/10/12 07:22:57;;;;;;;8.70;2.60;;;;;;;;;;4998493;28;20049;-76
2023/10/12 07:25:23;;;;;;;7.00;2.60;;;;;;;;;;4994142;28;20188;-77
2023/10/12 07:27:56;;;;;;;6.00;2.00;;;;;;;;;;4998845;28;20116;-76
2023/10/12 07:30:30;;;;;;;4.55;2.28;;;;;;;;;;4993129;28;20430;-76
2023/10/12 07:33:04;;;;;;;8.48;2.88;;;;;;;;;;4994912;28;20034;-77
2023/10/12 07:35:38;;;;;;;6.25;2.97;;;;;;;;;;4996657;28;20052;-77
2023/10/12 07:39:15;;;;;;;10.73;2.80;;;;;;;;;;4995847;28;20084;-77
2023/10/12 07:41:13;;;;;;;15.23;2.58;;;;;;;;;;4967121;28;20073;-76
2023/10/12 07:43:38;;;;;;;8.55;2.30;;;;;;;;;;4996852;28;20123;-76
2023/10/12 07:46:13;;;;;;;14.27;2.67;;;;;;;;;;4995253;28;20075;-76
2023/10/12 07:48:45;;;;;;;16.38;2.75;;;;;;;;;;4994641;28;20030;-76
2023/10/12 07:51:30;;;;;;;8.48;3.10;;;;;;;;;;4997819;28;20109;-76
2023/10/12 07:54:00;;;;;;;4.95;2.58;;;;;;;;;;4994469;28;20113;-76
2023/10/12 07:56:34;;;;;;;5.20;2.10;;;;;;;;;;4995601;28;20058;-76
2023/10/12 07:59:00;;;;;;;3.25;2.53;;;;;;;;;;4988814;28;20043;-76
2023/10/12 08:01:39;;;;;;;4.85;2.40;;;;;;;;;;4992854;28;20281;-76
2023/10/12 08:04:09;;;;;;;5.38;2.53;;;;;;;;;;4998560;28;20088;-76
2023/10/12 08:09:05;;;;;;;7.88;2.25;;;;;;;;;;4995361;28;20419;-76
2023/10/12 08:11:31;;;;;;;7.13;2.92;;;;;;;;;;5000044;28;20528;-76
2023/10/12 08:14:18;;;;;;;6.38;2.42;;;;;;;;;;4998572;28;20397;-76
2023/10/12 08:16:44;;;;;;;7.63;2.45;;;;;;;;;;4989416;28;20060;-76
2023/10/12 08:19:23;;;;;;;10.90;2.20;;;;;;;;;;4994338;28;20450;-76
2023/10/12 08:21:58;;;;;;;4.20;2.15;;;;;;;;;;4998718;28;20402;-76
2023/10/12 08:24:23;;;;;;;8.35;2.60;;;;;;;;;;4999121;28;20136;-76
2023/10/12 08:26:57;;;;;;;6.70;2.88;;;;;;;;;;4998765;28;20133;-76
2023/10/12 08:30:11;;;;;;;4.70;2.20;;;;;;;;;;4996172;28;20046;-76
2023/10/12 08:39:49;;;;;;;10.07;2.40;;;;;;;;;;4985806;28;20034;-76
2023/10/12 08:44:59;;;;;;;5.20;2.40;;;;;;;;;;5000315;28;20518;-75
2023/10/12 08:52:28;;;;;;;10.55;2.88;;;;;;;;;;4999789;28;20026;-76
2023/10/12 08:54:58;;;;;;;4.45;2.35;;;;;;;;;;4997706;28;20492;-75
2023/10/12 08:57:55;;;;;;;6.70;2.35;;;;;;;;;;4998476;28;20085;-75
2023/10/12 09:05:51;;;;;;;9.20;2.33;;;;;;;;;;5000994;28;20466;-75
2023/10/12 09:13:29;;;;;;;9.15;2.60;;;;;;;;;;5004913;28;20585;-76
2023/10/12 09:15:57;;;;;;;6.85;2.45;;;;;;;;;;4999465;28;20049;-75
2023/10/12 09:18:24;;;;;;;5.88;2.72;;;;;;;;;;4994059;28;20101;-75
2023/10/12 09:36:43;;;;;;;3.92;2.42;;;;;;;;;;5014685;28;20406;-81
2023/10/12 09:39:14;;;;;;;13.80;2.78;;;;;;;;;;5018677;28;20025;-77
2023/10/12 09:41:54;;;;;;;8.52;2.53;;;;;;;;;;5000120;28;20018;-79
2023/10/12 09:44:26;;;;;;;11.80;3.05;;;;;;;;;;5009925;28;20033;-76
2023/10/12 09:46:55;;;;;;;8.70;2.60;;;;;;;;;;5018676;28;20038;-77
2023/10/12 09:49:22;;;;;;;7.82;2.78;;;;;;;;;;5019690;28;20117;-79
2023/10/12 09:51:54;;;;;;;5.68;2.40;;;;;;;;;;5015712;28;20042;-76
2023/10/12 09:54:27;;;;;;;9.82;2.63;;;;;;;;;;5010231;28;20026;-78
2023/10/12 09:56:58;;;;;;;10.15;2.60;;;;;;;;;;5006544;28;20014;-80
2023/10/12 09:59:29;;;;;;;4.90;2.63;;;;;;;;;;5010086;28;20034;-80
2023/10/12 10:02:02;;;;;;;12.52;3.22;;;;;;;;;;5007943;28;20030;-79
2023/10/12 10:04:28;;;;;;;12.27;2.58;;;;;;;;;;5015958;28;20038;-80
2023/10/12 10:07:15;;;;;;;5.35;2.60;;;;;;;;;;5004690;28;20038;-80
2023/10/12 10:09:53;;;;;;;14.82;3.17;;;;;;;;;;5012610;28;20038;-80
2023/10/12 10:12:21;;;;;;;7.82;2.60;;;;;;;;;;5002795;28;20034;-81
2023/10/12 10:14:54;;;;;;;4.38;2.60;;;;;;;;;;4985644;28;20025;-80
2023/10/12 10:17:24;;;;;;;6.53;2.30;;;;;;;;;;5003967;28;20725;-80
2023/10/12 10:20:12;;;;;;;7.97;2.28;;;;;;;;;;5010103;28;20041;-79
2023/10/12 10:22:38;;;;;;;3.45;2.75;;;;;;;;;;5013744;28;20034;-79
2023/10/12 10:25:06;;;;;;;4.45;2.13;;;;;;;;;;5013866;28;20038;-80
2023/10/12 10:27:34;;;;;;;4.78;2.30;;;;;;;;;;5009876;28;20088;-80
2023/10/12 10:30:25;;;;;;;8.98;2.22;;;;;;;;;;5011143;28;20021;-80
2023/10/12 10:33:15;;;;;;;6.85;2.53;;;;;;;;;;5011568;28;20091;-79
2023/10/12 10:35:56;;;;;;;4.70;2.30;;;;;;;;;;5014004;28;20072;-79
2023/10/12 10:38:23;;;;;;;7.70;2.67;;;;;;;;;;4992270;28;20080;-79
2023/10/12 10:40:49;;;;;;;8.50;2.53;;;;;;;;;;4990695;28;20442;-80
2023/10/12 10:43:15;;;;;;;12.20;2.30;;;;;;;;;;4991658;28;20197;-80
2023/10/12 10:45:42;;;;;;;3.38;2.28;;;;;;;;;;5005460;28;20067;-79
2023/10/12 10:48:13;;;;;;;7.85;2.95;;;;;;;;;;5011547;28;20076;-79
2023/10/12 10:50:49;;;;;;;4.40;2.45;;;;;;;;;;5010179;28;20058;-79
2023/10/12 10:53:15;;;;;;;6.43;2.92;;;;;;;;;;4999193;28;20088;-79
2023/10/12 10:55:41;;;;;;;9.80;2.50;;;;;;;;;;5016904;28;20042;-79
2023/10/12 10:58:07;;;;;;;10.48;2.60;;;;;;;;;;5016149;28;20124;-77
2023/10/12 11:00:37;;;;;;;7.90;2.40;;;;;;;;;;5016031;28;20026;-79
2023/10/12 11:03:03;;;;;;;9.57;2.47;;;;;;;;;;5016612;28;20486;-79
2023/10/12 11:05:29;;;;;;;7.32;2.97;;;;;;;;;;5007001;28;20051;-79
2023/10/12 11:07:58;;;;;;;7.65;2.90;;;;;;;;;;4996936;28;20038;-79
2023/10/12 11:10:34;;;;;;;9.90;2.97;;;;;;;;;;4996947;28;20112;-79
2023/10/12 11:13:00;;;;;;;4.53;2.08;;;;;;;;;;4979860;28;20402;-79
2023/10/12 11:15:26;;;;;;;6.55;2.50;;;;;;;;;;4997486;28;20398;-79
2023/10/12 11:18:05;;;;;;;6.63;2.50;;;;;;;;;;5005160;28;20049;-78
2023/10/12 11:20:38;;;;;;;4.80;2.33;;;;;;;;;;4998192;28;20035;-78
2023/10/12 11:23:07;;;;;;;8.52;2.85;;;;;;;;;;4997284;28;20134;-78
2023/10/12 11:25:39;;;;;;;5.85;2.60;;;;;;;;;;4997499;28;20034;-77
2023/10/12 11:28:26;;;;;;;6.50;2.60;;;;;;;;;;4997120;28;20046;-77
2023/10/12 11:30:52;;;;;;;9.13;2.90;;;;;;;;;;4997172;28;20026;-78
2023/10/12 11:33:27;;;;;;;5.95;2.83;;;;;;;;;;4997529;28;20117;-78
2023/10/12 11:35:54;;;;;;;5.60;2.70;;;;;;;;;;4997792;28;20030;-78
2023/10/12 11:38:21;;;;;;;8.95;2.50;;;;;;;;;;4995235;28;20121;-77
2023/10/12 11:40:54;;;;;;;4.25;2.58;;;;;;;;;;4998858;28;20030;-82
2023/10/12 11:43:21;;;;;;;3.90;2.50;;;;;;;;;;4983712;28;20037;-81
2023/10/12 11:45:54;;;;;;;7.10;2.55;;;;;;;;;;5002913;28;20507;-81
2023/10/12 11:48:21;;;;;;;7.32;2.80;;;;;;;;;;4999651;28;20041;-81
2023/10/12 11:50:48;;;;;;;8.52;3.00;;;;;;;;;;4999416;28;20022;-80
2023/10/12 11:53:18;;;;;;;9.20;3.15;;;;;;;;;;4998822;28;20048;-79
2023/10/12 11:55:49;;;;;;;7.75;3.20;;;;;;;;;;4999598;28;20133;-81
2023/10/12 11:58:19;;;;;;;5.60;2.58;;;;;;;;;;4982453;28;20034;-81
2023/10/12 12:00:50;;;;;;;5.90;2.40;;;;;;;;;;4998139;28;20040;-82
2023/10/12 12:03:16;;;;;;;15.27;2.80;;;;;;;;;;4996432;28;20035;-78
2023/10/12 12:05:43;;;;;;;8.00;2.80;;;;;;;;;;5000091;28;20046;-79
2023/10/12 12:08:15;;;;;;;10.98;2.85;;;;;;;;;;5000014;28;20038;-80
2023/10/12 12:13:20;;;;;;;10.40;2.90;;;;;;;;;;5001025;28;20070;-80
2023/10/12 12:15:46;;;;;;;3.97;2.80;;;;;;;;;;5005365;28;20141;-80
2023/10/12 12:18:22;;;;;;;4.85;2.30;;;;;;;;;;4996106;28;20026;-77
2023/10/12 12:20:52;;;;;;;5.90;2.88;;;;;;;;;;4994197;28;20030;-78
2023/10/12 12:23:19;;;;;;;7.47;2.63;;;;;;;;;;4998366;28;20041;-80
2023/10/12 12:25:44;;;;;;;12.57;2.72;;;;;;;;;;4999496;28;20410;-83
2023/10/12 12:28:21;;;;;;;4.55;2.40;;;;;;;;;;4991128;28;20045;-82
2023/10/12 12:30:51;;;;;;;6.65;2.85;;;;;;;;;;4990885;28;20031;-83
2023/10/12 12:33:23;;;;;;;9.35;2.70;;;;;;;;;;4975114;28;20033;-81
2023/10/12 12:35:48;;;;;;;3.88;2.20;;;;;;;;;;5005951;28;20010;-80
2023/10/12 12:40:59;;;;;;;6.75;2.15;;;;;;;;;;4997542;28;20045;-81
2023/10/12 12:43:24;;;;;;;7.03;2.90;;;;;;;;;;4976940;28;20569;-82
2023/10/12 12:45:49;;;;;;;11.25;2.45;;;;;;;;;;4989884;28;20038;-81
2023/10/12 12:48:14;;;;;;;4.05;2.25;;;;;;;;;;5002614;28;20397;-80
2023/10/12 12:50:43;;;;;;;7.55;2.75;;;;;;;;;;5001194;28;20022;-80
2023/10/12 12:53:11;;;;;;;7.25;3.03;;;;;;;;;;5001135;28;20049;-80
2023/10/12 12:55:38;;;;;;;13.55;2.97;;;;;;;;;;4982401;28;20088;-78
2023/10/12 12:58:09;;;;;;;5.25;2.30;;;;;;;;;;5011109;28;20181;-78
2023/10/12 13:00:35;;;;;;;10.20;2.33;;;;;;;;;;5003374;28;20038;-77
2023/10/12 13:03:00;;;;;;;7.43;2.88;;;;;;;;;;4995561;28;20157;-78
2023/10/12 13:05:28;;;;;;;3.38;2.40;;;;;;;;;;5012257;28;20153;-78
2023/10/12 13:07:55;;;;;;;7.93;2.75;;;;;;;;;;5009284;28;20026;-78
2023/10/12 13:10:21;;;;;;;5.88;2.15;;;;;;;;;;5008587;28;20117;-80
2023/10/12 13:12:47;;;;;;;4.50;2.30;;;;;;;;;;4992021;28;20030;-79
2023/10/12 13:15:14;;;;;;;5.90;2.45;;;;;;;;;;5012012;28;20442;-78
2023/10/12 13:17:40;;;;;;;4.97;2.15;;;;;;;;;;4998621;28;20050;-78
2023/10/12 13:20:17;;;;;;;7.35;2.60;;;;;;;;;;4979607;28;20035;-77
2023/10/12 13:22:44;;;;;;;8.18;2.85;;;;;;;;;;4987957;28;20446;-78
2023/10/12 13:25:11;;;;;;;7.03;2.70;;;;;;;;;;4989619;28;20121;-78
2023/10/12 13:27:37;;;;;;;8.35;2.13;;;;;;;;;;5000868;28;20037;-79
2023/10/12 13:30:09;;;;;;;16.73;3.03;;;;;;;;;;5014548;28;20052;-79
2023/10/12 13:32:38;;;;;;;8.10;3.70;;;;;;;;;;5015920;28;20026;-81
2023/10/12 13:35:31;;;;;;;10.25;2.80;;;;;;;;;;5012057;28;20124;-80
2023/10/12 13:37:59;;;;;;;11.30;2.35;;;;;;;;;;5005599;28;20038;-80
2023/10/12 13:40:26;;;;;;;3.03;2.00;;;;;;;;;;5011031;28;20057;-78
2023/10/12 13:42:51;;;;;;;6.45;2.17;;;;;;;;;;5009170;28;20076;-80
2023/10/12 13:45:18;;;;;;;4.50;2.10;;;;;;;;;;4994777;28;20076;-79
2023/10/12 13:47:47;;;;;;;4.82;2.28;;;;;;;;;;4993436;28;20463;-80
2023/10/12 13:50:13;;;;;;;3.55;2.03;;;;;;;;;;4989641;28;20121;-79
2023/10/12 13:52:39;;;;;;;8.38;2.38;;;;;;;;;;5008625;28;20048;-79
2023/10/12 13:55:12;;;;;;;5.25;2.35;;;;;;;;;;4986391;28;20038;-78
2023/10/12 13:57:50;;;;;;;5.57;2.35;;;;;;;;;;5003118;28;20099;-78
2023/10/12 14:00:17;;;;;;;4.30;2.50;;;;;;;;;;5003244;28;20033;-78
2023/10/12 14:02:42;;;;;;;2.83;2.30;;;;;;;;;;5000509;28;20029;-80
2023/10/12 14:05:08;;;;;;;6.25;2.45;;;;;;;;;;5007411;28;20437;-79
2023/10/12 14:07:37;;;;;;;10.73;2.47;;;;;;;;;;5008721;28;20042;-81
2023/10/12 14:10:04;;;;;;;4.13;2.35;;;;;;;;;;5010656;28;20453;-81
2023/10/12 14:12:30;;;;;;;5.30;2.40;;;;;;;;;;4993962;28;20085;-80
2023/10/12 14:14:55;;;;;;;9.18;2.42;;;;;;;;;;5001166;28;20030;-80
2023/10/12 14:17:24;;;;;;;10.23;2.85;;;;;;;;;;5004636;28;20092;-79
2023/10/12 14:19:50;;;;;;;5.63;2.30;;;;;;;;;;5012249;28;20030;-79
2023/10/12 14:22:16;;;;;;;4.38;2.40;;;;;;;;;;5004313;28;20077;-81
2023/10/12 14:24:46;;;;;;;7.47;2.78;;;;;;;;;;5005635;28;20049;-81
2023/10/12 14:27:12;;;;;;;12.70;2.35;;;;;;;;;;4985410;28;20014;-80
2023/10/12 14:29:39;;;;;;;6.13;2.08;;;;;;;;;;5000208;28;20039;-81
2023/10/12 14:32:04;;;;;;;5.22;2.33;;;;;;;;;;4998686;28;20325;-81
2023/10/12 14:34:30;;;;;;;4.57;2.35;;;;;;;;;;4999013;28;20030;-81
2023/10/12 14:36:55;;;;;;;4.22;2.63;;;;;;;;;;4998659;28;20048;-80
2023/10/12 14:39:23;;;;;;;5.25;2.58;;;;;;;;;;5004691;28;20048;-80
2023/10/12 14:41:49;;;;;;;6.32;2.65;;;;;;;;;;5009543;28;20049;-81
2023/10/12 14:44:16;;;;;;;10.43;2.53;;;;;;;;;;5009970;28;20034;-80
2023/10/12 14:46:41;;;;;;;4.45;2.33;;;;;;;;;;5007096;28;20051;-80
2023/10/12 14:49:11;;;;;;;8.90;2.28;;;;;;;;;;5010914;28;20047;-80
2023/10/12 14:51:37;;;;;;;7.82;2.65;;;;;;;;;;4991519;28;20022;-78
2023/10/12 14:54:03;;;;;;;4.15;2.22;;;;;;;;;;5013836;28;20402;-80
2023/10/12 14:56:29;;;;;;;5.75;2.60;;;;;;;;;;4990348;28;20047;-79
2023/10/12 14:58:56;;;;;;;4.60;2.20;;;;;;;;;;5010832;28;20037;-79
2023/10/12 15:01:22;;;;;;;4.05;2.50;;;;;;;;;;4992893;28;20088;-81
2023/10/12 15:03:47;;;;;;;5.90;2.33;;;;;;;;;;5003041;28;20050;-80
2023/10/12 15:06:12;;;;;;;4.28;2.35;;;;;;;;;;5001695;28;20021;-81
2023/10/12 15:08:38;;;;;;;6.57;2.38;;;;;;;;;;4989881;28;20566;-81
2023/10/12 15:11:07;;;;;;;5.00;2.35;;;;;;;;;;4992813;28;20074;-80
2023/10/12 15:13:37;;;;;;;4.82;2.60;;;;;;;;;;5001639;28;20054;-81
2023/10/12 15:16:06;;;;;;;8.50;2.65;;;;;;;;;;5000247;28;20041;-80
2023/10/12 15:18:31;;;;;;;7.82;2.42;;;;;;;;;;5002174;28;20053;-80
2023/10/12 15:20:56;;;;;;;7.68;2.28;;;;;;;;;;4993247;28;20061;-81
2023/10/12 15:23:24;;;;;;;4.63;2.70;;;;;;;;;;5009033;28;20045;-80
2023/10/12 15:25:57;;;;;;;8.65;2.45;;;;;;;;;;4997752;28;20038;-82
2023/10/12 15:28:22;;;;;;;8.75;2.92;;;;;;;;;;4999362;28;20149;-81
2023/10/12 15:30:47;;;;;;;4.93;2.53;;;;;;;;;;4994379;28;20058;-81
2023/10/12 15:33:13;;;;;;;14.75;2.58;;;;;;;;;;5005835;28;20026;-81
2023/10/12 15:35:39;;;;;;;3.60;2.20;;;;;;;;;;5006025;28;20010;-82
2023/10/12 15:38:05;;;;;;;8.13;2.42;;;;;;;;;;4992186;28;20034;-81
2023/10/12 15:40:32;;;;;;;5.95;2.22;;;;;;;;;;5006271;28;20042;-81
2023/10/12 15:43:04;;;;;;;9.00;2.70;;;;;;;;;;5004062;28;20061;-81
2023/10/12 15:45:30;;;;;;;5.70;2.78;;;;;;;;;;4999665;28;20046;-81
2023/10/12 15:47:56;;;;;;;6.43;2.17;;;;;;;;;;5001339;28;20037;-81
2023/10/12 15:50:22;;;;;;;3.80;2.42;;;;;;;;;;5010259;28;20030;-80
2023/10/12 15:52:51;;;;;;;3.58;2.33;;;;;;;;;;4972176;28;20121;-81
2023/10/12 15:55:23;;;;;;;5.20;2.22;;;;;;;;;;5005229;28;20376;-81
2023/10/12 15:57:49;;;;;;;7.78;2.40;;;;;;;;;;5006007;28;20069;-80
2023/10/12 16:00:22;;;;;;;4.78;2.83;;;;;;;;;;5005661;28;20034;-80
2023/10/12 16:02:55;;;;;;;6.57;2.42;;;;;;;;;;5007648;28;20037;-80
2023/10/12 16:05:22;;;;;;;10.27;2.40;;;;;;;;;;4978408;28;20125;-81
2023/10/12 16:07:50;;;;;;;13.25;2.80;;;;;;;;;;5001516;28;20050;-78
2023/10/12 16:10:17;;;;;;;5.45;2.38;;;;;;;;;;5004966;28;20049;-80
2023/10/12 16:12:45;;;;;;;5.07;2.42;;;;;;;;;;5012538;28;20065;-82
2023/10/12 16:15:12;;;;;;;5.05;2.20;;;;;;;;;;5016214;28;20120;-81
2023/10/12 16:17:38;;;;;;;8.63;2.63;;;;;;;;;;5017135;28;20025;-81
2023/10/12 16:20:05;;;;;;;7.43;2.70;;;;;;;;;;5004780;28;20039;-81
2023/10/12 16:22:32;;;;;;;6.40;2.50;;;;;;;;;;5013047;28;20102;-81
2023/10/12 16:24:58;;;;;;;9.52;2.22;;;;;;;;;;5002701;28;20042;-81
2023/10/12 16:27:24;;;;;;;9.00;2.55;;;;;;;;;;5003200;28;20042;-80
2023/10/12 16:29:50;;;;;;;8.73;2.25;;;;;;;;;;5012482;28;20449;-79
2023/10/12 16:32:16;;;;;;;8.15;2.55;;;;;;;;;;4999515;28;20172;-79
2023/10/12 16:34:42;;;;;;;5.85;2.30;;;;;;;;;;5004259;28;20052;-80